Time;durP1;ratioP1;P1;durP2;ratioP2;P2;SDS_P1;SDS_P2;PMS_P1;PMS_P2;Temp;Humidity;BMP_temperature;BMP_pressure;BME280_temperature;BME280_humidity;BME280_pressure;Samples;Min_cycle;Max_cycle;Signal;HPM_P1;HPM_P2
2021/12/06 00:01:29;;;;;;;40.67;24.90;;;3.00;99.90;;;;;;5127785;28;20104;-63
2021/12/06 00:04:10;;;;;;;39.95;23.33;;;3.00;99.90;;;;;;5114097;28;20071;-63
2021/12/06 00:06:37;;;;;;;;;;;3.00;99.90;;;;;;5131518;28;20051;-63
2021/12/06 00:09:09;;;;;;;42.10;25.20;;;2.90;99.90;;;;;;5127492;28;19915;-63
2021/12/06 00:11:35;;;;;;;42.45;24.45;;;2.90;99.90;;;;;;5144180;28;20059;-63
2021/12/06 00:14:03;;;;;;;41.53;24.38;;;2.80;99.90;;;;;;5123874;28;20045;-63
2021/12/06 00:16:29;;;;;;;38.25;24.15;;;2.80;99.90;;;;;;5127924;28;20050;-63
2021/12/06 00:18:55;;;;;;;40.15;24.63;;;2.80;99.90;;;;;;5113703;28;20054;-63
2021/12/06 00:21:22;;;;;;;42.35;25.05;;;2.90;99.90;;;;;;5139360;28;20469;-63
2021/12/06 00:23:49;;;;;;;36.10;23.65;;;2.90;99.90;;;;;;5128347;27;20142;-63
2021/12/06 00:26:15;;;;;;;44.42;24.92;;;2.80;99.90;;;;;;5146074;27;20035;-63
2021/12/06 00:28:44;;;;;;;39.45;22.55;;;2.90;99.90;;;;;;5132074;27;20126;-63
2021/12/06 00:31:11;;;;;;;44.80;26.15;;;2.90;99.90;;;;;;5114734;27;20051;-63
2021/12/06 00:33:37;;;;;;;40.88;24.38;;;2.80;99.90;;;;;;5135834;27;20039;-63
2021/12/06 00:36:06;;;;;;;43.15;24.95;;;2.90;99.90;;;;;;5131522;27;20406;-63
2021/12/06 00:38:34;;;;;;;39.50;23.88;;;2.80;99.90;;;;;;5131274;27;20047;-63
2021/12/06 00:41:01;;;;;;;44.60;25.63;;;2.90;99.90;;;;;;5149575;27;20187;-63
2021/12/06 00:43:27;;;;;;;42.38;24.63;;;2.90;99.90;;;;;;5131449;27;20043;-63
2021/12/06 00:45:53;;;;;;;44.42;25.25;;;2.80;99.90;;;;;;5131383;27;20083;-63
2021/12/06 00:48:18;;;;;;;44.72;26.25;;;2.80;99.90;;;;;;5130592;27;20062;-63
2021/12/06 00:50:44;;;;;;;42.28;24.83;;;2.80;99.90;;;;;;5114156;27;20152;-63
2021/12/06 00:53:11;;;;;;;44.00;24.52;;;2.80;99.90;;;;;;5131296;27;20042;-63
2021/12/06 00:55:37;;;;;;;41.33;24.55;;;2.80;99.90;;;;;;5158266;27;20043;-63
2021/12/06 00:58:04;;;;;;;43.13;25.27;;;2.80;99.90;;;;;;5149560;27;20181;-63
2021/12/06 01:00:40;;;;;;;44.90;26.15;;;2.80;99.90;;;;;;5130868;27;20078;-63
2021/12/06 01:03:09;;;;;;;40.10;23.77;;;2.80;99.90;;;;;;5130760;27;20039;-63
2021/12/06 01:05:35;;;;;;;40.93;24.20;;;2.80;99.90;;;;;;5144505;27;20092;-63
2021/12/06 01:08:01;;;;;;;41.08;24.67;;;2.80;99.90;;;;;;5130487;27;20038;-63
2021/12/06 01:10:28;;;;;;;47.38;26.40;;;2.80;99.90;;;;;;5149142;27;20098;-63
2021/12/06 01:12:54;;;;;;;45.85;26.85;;;2.80;99.90;;;;;;5149321;27;20055;-63
2021/12/06 01:15:20;;;;;;;42.60;25.27;;;2.80;99.90;;;;;;5130794;27;20077;-63
2021/12/06 01:17:47;;;;;;;46.15;26.30;;;2.90;99.90;;;;;;5148687;27;20062;-63
2021/12/06 01:20:18;;;;;;;45.60;25.52;;;2.90;99.90;;;;;;5127804;27;20055;-63
2021/12/06 01:23:00;;;;;;;47.72;26.02;;;2.80;99.90;;;;;;5148335;27;20082;-63
2021/12/06 01:25:36;;;;;;;43.65;24.27;;;2.80;99.90;;;;;;5148656;27;20055;-63
2021/12/06 01:30:56;;;;;;;44.97;25.27;;;2.80;99.90;;;;;;5142234;27;20407;-63
2021/12/06 01:41:29;;;;;;;51.05;27.15;;;2.80;99.90;;;;;;5148262;27;20058;-63
2021/12/06 01:44:37;;;;;;;45.90;25.40;;;2.80;99.90;;;;;;5148617;27;20035;-63
2021/12/06 01:47:06;;;;;;;49.53;25.85;;;2.80;99.90;;;;;;5048899;28;20046;-63
2021/12/06 01:49:38;;;;;;;52.10;27.50;;;2.80;99.90;;;;;;5065037;28;20045;-63
2021/12/06 01:52:10;;;;;;;50.25;26.30;;;2.80;99.90;;;;;;5047888;28;20056;-63
2021/12/06 01:54:36;;;;;;;51.70;27.63;;;2.80;99.90;;;;;;5069038;28;20056;-63
2021/12/06 01:57:02;;;;;;;53.22;27.45;;;2.80;99.90;;;;;;5048523;28;20037;-63
2021/12/06 01:59:28;;;;;;;54.28;26.77;;;2.80;99.90;;;;;;5064173;28;20068;-63
2021/12/06 02:01:55;;;;;;;58.50;27.88;;;2.70;99.90;;;;;;5064247;28;20531;-63
2021/12/06 02:04:21;;;;;;;57.20;29.00;;;2.70;99.90;;;;;;5057416;28;20061;-63
2021/12/06 02:06:47;;;;;;;57.60;29.13;;;2.70;99.90;;;;;;5059025;28;20082;-63
2021/12/06 02:09:15;;;;;;;54.78;27.65;;;2.70;99.90;;;;;;5048116;28;20053;-63
2021/12/06 02:11:42;;;;;;;57.67;28.67;;;2.80;99.90;;;;;;5064227;28;20049;-63
2021/12/06 02:14:30;;;;;;;52.97;28.25;;;2.90;99.90;;;;;;5047598;28;20061;-63
2021/12/06 02:17:36;;;;;;;52.83;27.85;;;2.90;99.90;;;;;;5042914;28;20152;-63
2021/12/06 02:20:00;;;;;;;51.65;26.90;;;2.90;99.90;;;;;;5138638;27;20047;-63
2021/12/06 02:22:30;;;;;;;52.78;27.52;;;2.90;99.90;;;;;;5118104;28;20554;-63
2021/12/06 02:24:57;;;;;;;57.70;28.35;;;2.90;99.90;;;;;;5128692;27;20111;-63
2021/12/06 02:27:27;;;;;;;57.55;27.83;;;2.90;99.90;;;;;;5129081;27;20043;-63
2021/12/06 02:29:53;;;;;;;52.90;26.95;;;2.90;99.90;;;;;;5137187;27;20081;-63
2021/12/06 02:32:20;;;;;;;50.90;25.27;;;2.90;99.90;;;;;;5129259;27;20055;-63
2021/12/06 02:34:50;;;;;;;54.20;27.27;;;2.90;99.90;;;;;;5128891;27;20042;-63
2021/12/06 02:37:21;;;;;;;57.25;28.40;;;2.90;99.90;;;;;;5147683;27;20051;-63
2021/12/06 02:39:47;;;;;;;53.45;27.13;;;2.90;99.90;;;;;;5146983;27;20080;-63
2021/12/06 02:42:15;;;;;;;50.25;26.45;;;2.80;99.90;;;;;;5128619;27;20047;-63
2021/12/06 02:44:43;;;;;;;50.85;27.27;;;2.90;99.90;;;;;;5147338;27;20039;-63
2021/12/06 02:47:09;;;;;;;50.05;26.88;;;2.80;99.90;;;;;;5127957;27;20042;-63
2021/12/06 02:49:35;;;;;;;60.90;29.77;;;2.90;99.90;;;;;;5128792;27;20047;-63
2021/12/06 02:52:01;;;;;;;57.67;28.80;;;2.80;99.90;;;;;;5147624;27;20050;-63
2021/12/06 02:54:28;;;;;;;57.63;29.15;;;2.80;99.90;;;;;;5150934;27;20400;-63
2021/12/06 02:57:06;;;;;;;61.15;31.05;;;2.90;99.90;;;;;;5128728;27;20047;-63
2021/12/06 02:59:35;;;;;;;56.42;28.85;;;2.90;99.90;;;;;;5143689;27;20031;-63
2021/12/06 03:02:06;;;;;;;59.97;29.75;;;2.90;99.90;;;;;;5123370;27;20051;-63
2021/12/06 03:04:32;;;;;;;63.85;31.45;;;2.90;99.90;;;;;;5146427;27;20047;-63
2021/12/06 03:06:59;;;;;;;65.82;29.50;;;2.80;99.90;;;;;;5147624;27;20046;-63
2021/12/06 03:09:28;;;;;;;64.13;32.10;;;2.80;99.90;;;;;;5146828;27;20039;-63
2021/12/06 03:11:58;;;;;;;64.88;31.25;;;2.90;99.90;;;;;;5146489;27;20414;-63
2021/12/06 03:14:48;;;;;;;65.38;30.85;;;2.80;99.90;;;;;;5128465;27;20100;-63
2021/12/06 03:17:19;;;;;;;61.75;29.98;;;2.90;99.90;;;;;;5147301;27;20041;-63
2021/12/06 03:19:47;;;;;;;65.53;31.35;;;2.90;99.90;;;;;;5127961;27;20077;-63
2021/12/06 03:22:14;;;;;;;66.13;31.35;;;2.90;99.90;;;;;;5141538;27;20530;-63
2021/12/06 03:24:40;;;;;;;62.22;29.48;;;2.90;99.90;;;;;;5139933;27;20095;-63
2021/12/06 03:27:06;;;;;;;68.00;32.15;;;2.90;99.90;;;;;;5125204;28;20524;-63
2021/12/06 03:29:33;;;;;;;62.25;30.92;;;2.90;99.90;;;;;;5127769;27;20369;-63
2021/12/06 03:31:59;;;;;;;65.53;32.55;;;2.90;99.90;;;;;;5128602;27;20129;-63
2021/12/06 03:34:26;;;;;;;66.00;31.50;;;2.90;99.90;;;;;;5127775;27;20380;-63
2021/12/06 03:36:53;;;;;;;63.45;29.30;;;2.90;99.90;;;;;;5128097;27;20096;-63
2021/12/06 03:39:26;;;;;;;64.25;31.00;;;2.90;99.90;;;;;;5128065;27;20075;-63
2021/12/06 03:41:55;;;;;;;65.85;30.35;;;2.90;99.90;;;;;;5127460;27;20047;-63
2021/12/06 03:44:21;;;;;;;69.38;31.65;;;2.90;99.90;;;;;;5128154;27;20390;-63
2021/12/06 03:46:51;;;;;;;68.57;34.08;;;2.90;99.90;;;;;;5146602;27;20106;-63
2021/12/06 03:49:17;;;;;;;68.07;32.38;;;2.90;99.90;;;;;;5145916;27;20120;-63
2021/12/06 03:51:45;;;;;;;71.07;33.22;;;2.90;99.90;;;;;;5128260;27;20115;-63
2021/12/06 03:54:18;;;;;;;66.75;31.70;;;2.90;99.90;;;;;;5137519;27;20035;-63
2021/12/06 03:56:44;;;;;;;71.78;32.28;;;2.90;99.90;;;;;;5128500;28;20054;-63
2021/12/06 03:59:10;;;;;;;69.93;32.70;;;2.90;99.90;;;;;;5141620;27;20050;-63
2021/12/06 04:01:37;;;;;;;71.25;33.17;;;2.90;99.90;;;;;;5127430;27;20111;-63
2021/12/06 04:04:04;;;;;;;64.82;30.45;;;2.90;99.90;;;;;;5123305;28;20040;-63
2021/12/06 04:06:30;;;;;;;68.97;32.72;;;3.00;99.90;;;;;;5127190;28;20051;-63
2021/12/06 04:08:56;;;;;;;65.32;30.08;;;3.00;99.90;;;;;;5146776;28;20050;-63
2021/12/06 04:11:22;;;;;;;62.97;29.63;;;3.00;99.90;;;;;;5127677;28;20098;-63
2021/12/06 04:13:49;;;;;;;67.15;30.50;;;3.00;99.90;;;;;;5146186;28;20089;-63
2021/12/06 04:16:15;;;;;;;60.78;30.98;;;3.00;99.90;;;;;;5127517;28;20043;-63
2021/12/06 04:18:41;;;;;;;66.43;33.10;;;3.00;99.90;;;;;;5145953;28;20046;-63
2021/12/06 04:21:09;;;;;;;59.92;29.23;;;3.00;99.90;;;;;;5134372;28;20043;-63
2021/12/06 04:23:36;;;;;;;67.50;30.85;;;3.10;99.90;;;;;;5119024;28;20071;-63
2021/12/06 04:26:03;;;;;;;64.50;31.67;;;3.10;99.90;;;;;;5145602;28;20053;-63
2021/12/06 04:28:32;;;;;;;67.20;31.13;;;3.20;99.90;;;;;;5127315;28;20035;-63
2021/12/06 04:30:58;;;;;;;64.78;31.17;;;3.20;99.90;;;;;;5143946;28;20047;-63
2021/12/06 04:33:24;;;;;;;57.42;29.95;;;3.30;99.90;;;;;;5127323;28;20038;-63
2021/12/06 04:35:50;;;;;;;58.67;29.42;;;3.50;99.90;;;;;;5144185;28;20049;-63
2021/12/06 04:38:17;;;;;;;62.40;30.75;;;3.40;99.90;;;;;;5127099;28;20126;-63
2021/12/06 04:40:43;;;;;;;56.60;28.35;;;3.30;99.90;;;;;;5127614;28;20051;-63
2021/12/06 04:43:09;;;;;;;57.13;28.25;;;3.40;99.90;;;;;;5145627;28;20054;-63
2021/12/06 04:45:36;;;;;;;60.08;29.48;;;3.30;99.90;;;;;;5127072;28;20039;-63
2021/12/06 04:48:03;;;;;;;55.42;27.45;;;3.30;99.90;;;;;;5144411;28;20048;-63
2021/12/06 04:50:31;;;;;;;56.17;27.58;;;3.20;99.90;;;;;;5126651;28;20051;-63
2021/12/06 04:53:02;;;;;;;60.33;29.25;;;3.10;99.90;;;;;;5145108;28;20055;-63
2021/12/06 04:55:43;;;;;;;59.38;27.27;;;3.10;99.90;;;;;;5131478;28;20055;-63
2021/12/06 04:58:12;;;;;;;61.72;28.45;;;3.10;99.90;;;;;;5126807;28;20039;-63
2021/12/06 05:00:48;;;;;;;61.65;28.90;;;3.10;99.90;;;;;;5126584;28;20548;-63
2021/12/06 05:03:14;;;;;;;61.67;28.70;;;3.10;99.90;;;;;;5127054;28;20043;-63
2021/12/06 05:05:44;;;;;;;59.53;29.10;;;3.20;99.90;;;;;;5132230;28;20049;-63
2021/12/06 05:08:16;;;;;;;60.22;27.80;;;3.20;99.90;;;;;;5109844;28;20083;-63
2021/12/06 05:10:42;;;;;;;62.78;29.08;;;3.20;99.90;;;;;;5128954;27;20040;-63
2021/12/06 05:13:09;;;;;;;60.15;29.58;;;3.20;99.90;;;;;;5130279;27;20047;-63
2021/12/06 05:15:35;;;;;;;55.15;27.58;;;3.20;99.90;;;;;;5131181;27;20183;-63
2021/12/06 05:18:00;;;;;;;56.83;28.58;;;3.20;99.90;;;;;;5131176;27;20051;-63
2021/12/06 05:20:27;;;;;;;54.15;25.90;;;3.20;99.90;;;;;;5130306;27;20072;-63
2021/12/06 05:22:53;;;;;;;58.08;28.13;;;3.30;99.90;;;;;;5148366;27;20051;-63
2021/12/06 05:25:23;;;;;;;54.97;26.42;;;3.30;99.90;;;;;;5130263;27;20068;-63
2021/12/06 05:27:50;;;;;;;60.47;28.35;;;3.20;99.90;;;;;;5148776;27;20047;-63
2021/12/06 05:30:16;;;;;;;62.13;28.23;;;3.30;99.90;;;;;;5129818;27;20038;-63
2021/12/06 05:32:43;;;;;;;62.33;28.60;;;3.30;99.90;;;;;;5131048;27;20043;-63
2021/12/06 05:35:10;;;;;;;61.03;29.02;;;3.20;99.90;;;;;;5130659;27;20047;-63
2021/12/06 05:37:40;;;;;;;62.90;28.65;;;3.20;99.90;;;;;;5111175;27;20043;-63
2021/12/06 05:40:10;;;;;;;66.28;31.42;;;3.20;99.90;;;;;;5146870;27;20083;-63
2021/12/06 05:42:36;;;;;;;63.75;29.30;;;3.20;99.90;;;;;;5138788;27;20039;-64
2021/12/06 05:45:03;;;;;;;68.90;30.42;;;3.30;99.90;;;;;;5146800;27;20103;-63
2021/12/06 05:47:29;;;;;;;64.70;29.08;;;3.20;99.90;;;;;;5106800;27;20519;-64
2021/12/06 05:49:54;;;;;;;71.82;32.60;;;3.20;99.90;;;;;;5086888;27;20062;-62
2021/12/06 05:52:20;;;;;;;67.13;30.27;;;3.20;99.90;;;;;;5110039;27;20587;-63
2021/12/06 05:54:46;;;;;;;64.70;30.52;;;3.20;99.90;;;;;;5111688;27;20112;-62
2021/12/06 05:57:12;;;;;;;69.32;31.50;;;3.20;99.90;;;;;;5139994;27;20051;-62
2021/12/06 05:59:39;;;;;;;70.93;30.17;;;3.30;99.90;;;;;;5110157;27;20615;-62
2021/12/06 06:02:06;;;;;;;67.57;31.38;;;3.30;99.90;;;;;;5139269;27;20107;-62
2021/12/06 06:04:33;;;;;;;67.82;29.73;;;3.20;99.90;;;;;;5126943;27;20047;-62
2021/12/06 06:06:59;;;;;;;66.50;28.92;;;3.20;99.90;;;;;;5120262;27;20059;-63
2021/12/06 06:09:25;;;;;;;64.25;28.85;;;3.20;99.90;;;;;;5111059;27;20099;-62
2021/12/06 06:11:50;;;;;;;62.22;27.85;;;3.20;99.90;;;;;;5123179;27;20046;-63
2021/12/06 06:14:17;;;;;;;67.00;28.67;;;3.20;99.90;;;;;;5077740;27;20623;-62
2021/12/06 06:16:51;;;;;;;65.03;29.75;;;3.10;99.90;;;;;;5119507;27;20051;-62
2021/12/06 06:19:24;;;;;;;62.95;28.90;;;3.10;99.90;;;;;;5113152;27;20047;-62
2021/12/06 06:21:50;;;;;;;65.60;28.70;;;3.10;99.90;;;;;;5116794;27;20449;-67
2021/12/06 06:24:17;;;;;;;66.18;29.70;;;3.10;99.90;;;;;;5113236;27;20050;-63
2021/12/06 06:26:42;;;;;;;66.40;29.60;;;3.20;99.90;;;;;;5100619;28;20614;-63
2021/12/06 06:29:09;;;;;;;68.47;28.88;;;3.10;99.90;;;;;;5123704;27;20055;-63
2021/12/06 06:31:36;;;;;;;63.78;27.67;;;3.10;99.90;;;;;;5103635;27;20120;-63
2021/12/06 06:34:03;;;;;;;59.88;26.63;;;3.20;99.90;;;;;;5128466;27;20275;-63
2021/12/06 06:36:29;;;;;;;58.92;25.75;;;3.30;99.90;;;;;;5109513;27;20058;-63
2021/12/06 06:38:55;;;;;;;61.80;27.80;;;3.20;99.90;;;;;;5110519;27;20415;-63
2021/12/06 06:41:21;;;;;;;63.00;29.27;;;3.20;99.90;;;;;;5120036;27;20055;-63
2021/12/06 06:43:47;;;;;;;58.38;27.80;;;3.20;99.90;;;;;;5109996;27;20073;-62
2021/12/06 06:46:13;;;;;;;62.90;29.70;;;3.20;99.90;;;;;;5105685;27;20039;-63
2021/12/06 06:48:38;;;;;;;73.43;29.00;;;3.10;99.90;;;;;;5128463;27;20108;-63
2021/12/06 06:51:04;;;;;;;68.95;30.23;;;3.10;99.90;;;;;;5104443;27;20116;-64
2021/12/06 06:53:30;;;;;;;67.30;30.23;;;3.10;99.90;;;;;;5107981;27;20051;-64
2021/12/06 06:55:56;;;;;;;72.13;29.42;;;3.10;99.90;;;;;;5112094;27;20142;-64
2021/12/06 06:58:22;;;;;;;65.00;28.38;;;3.10;99.90;;;;;;5110496;27;20051;-64
2021/12/06 07:00:48;;;;;;;65.45;28.08;;;3.10;99.90;;;;;;5105784;27;20104;-65
2021/12/06 07:03:14;;;;;;;67.10;28.73;;;3.10;99.90;;;;;;5111670;27;20093;-64
2021/12/06 07:05:40;;;;;;;66.20;28.77;;;3.10;99.90;;;;;;5120128;27;20555;-64
2021/12/06 07:08:07;;;;;;;61.78;28.10;;;3.20;99.90;;;;;;5110119;27;20289;-64
2021/12/06 07:10:33;;;;;;;62.67;28.58;;;3.30;99.90;;;;;;5120764;27;20043;-64
2021/12/06 07:13:03;;;;;;;65.57;26.13;;;3.30;99.90;;;;;;5107396;27;20116;-64
2021/12/06 07:15:31;;;;;;;62.63;27.25;;;3.30;99.90;;;;;;5120035;27;20543;-64
2021/12/06 07:17:58;;;;;;;58.63;26.08;;;3.20;99.90;;;;;;5110393;27;20058;-64
2021/12/06 07:20:25;;;;;;;57.20;25.67;;;3.30;99.90;;;;;;5122783;27;20048;-64
2021/12/06 07:22:52;;;;;;;57.80;25.88;;;3.30;99.90;;;;;;5122950;27;20043;-64
2021/12/06 07:25:20;;;;;;;53.67;24.27;;;3.40;99.90;;;;;;5110035;27;20039;-64
2021/12/06 07:27:47;;;;;;;52.47;25.15;;;3.50;99.90;;;;;;5107474;28;20059;-66
2021/12/06 07:30:14;;;;;;;51.67;24.83;;;3.50;99.90;;;;;;5054078;28;20150;-64
2021/12/06 07:32:40;;;;;;;54.63;25.70;;;3.40;99.90;;;;;;5115624;27;20043;-64
2021/12/06 07:35:07;;;;;;;44.70;21.38;;;3.50;99.90;;;;;;5072638;28;20056;-63
2021/12/06 07:37:33;;;;;;;49.30;23.45;;;3.50;99.90;;;;;;5109668;27;20049;-60
2021/12/06 07:39:59;;;;;;;48.10;23.05;;;3.60;99.90;;;;;;5126709;27;20057;-59
2021/12/06 07:42:25;;;;;;;49.33;23.38;;;3.50;99.90;;;;;;5137574;27;20239;-60
2021/12/06 07:44:51;;;;;;;46.58;22.45;;;3.40;99.90;;;;;;5127422;27;20054;-59
2021/12/06 07:47:17;;;;;;;47.60;22.05;;;3.50;99.90;;;;;;5104716;28;20130;-59
2021/12/06 07:49:45;;;;;;;48.13;22.73;;;3.50;99.90;;;;;;5108811;28;20083;-59
2021/12/06 07:52:11;;;;;;;49.40;24.60;;;3.50;99.90;;;;;;5134208;27;20512;-60
2021/12/06 07:54:39;;;;;;;50.22;23.63;;;3.50;99.90;;;;;;5109081;27;20047;-60
2021/12/06 07:57:06;;;;;;;47.95;23.60;;;3.60;99.90;;;;;;5121388;28;20055;-60
2021/12/06 07:59:34;;;;;;;48.70;22.90;;;3.50;99.90;;;;;;5108970;28;20541;-59
2021/12/06 08:02:01;;;;;;;50.78;24.58;;;3.50;99.90;;;;;;5135080;27;20069;-60
2021/12/06 08:04:26;;;;;;;51.65;24.00;;;3.60;99.90;;;;;;5127040;27;20043;-60
2021/12/06 08:06:52;;;;;;;49.70;21.95;;;3.60;99.90;;;;;;5119718;28;20058;-60
2021/12/06 08:09:18;;;;;;;43.85;21.48;;;3.90;99.90;;;;;;5108873;28;20446;-60
2021/12/06 08:11:44;;;;;;;44.45;22.30;;;3.90;99.90;;;;;;5121700;28;20061;-59
2021/12/06 08:14:10;;;;;;;43.90;20.35;;;3.70;99.90;;;;;;5110950;28;20043;-59
2021/12/06 08:16:42;;;;;;;45.08;20.20;;;3.70;99.90;;;;;;5137327;28;20042;-60
2021/12/06 08:19:09;;;;;;;43.97;19.15;;;3.70;99.90;;;;;;5124592;28;20051;-59
2021/12/06 08:21:35;;;;;;;41.03;19.92;;;3.70;99.90;;;;;;5106619;28;20048;-59
2021/12/06 08:24:02;;;;;;;37.67;19.98;;;4.00;99.90;;;;;;5091308;28;20058;-59
2021/12/06 08:26:32;;;;;;;40.72;22.00;;;3.80;99.90;;;;;;5118988;28;20043;-59
2021/12/06 08:29:00;;;;;;;40.30;20.30;;;3.70;99.90;;;;;;5120243;28;20523;-59
2021/12/06 08:31:28;;;;;;;43.70;21.02;;;3.80;99.90;;;;;;5138544;28;20035;-59
2021/12/06 08:33:55;;;;;;;40.45;20.63;;;3.60;99.90;;;;;;5113290;28;20048;-59
2021/12/06 08:36:22;;;;;;;41.13;20.08;;;3.70;99.90;;;;;;5108716;28;20079;-59
2021/12/06 08:38:49;;;;;;;44.65;20.20;;;3.70;99.90;;;;;;5120167;28;20078;-60
2021/12/06 08:41:18;;;;;;;44.05;21.90;;;3.60;99.90;;;;;;5121359;28;20035;-60
2021/12/06 08:43:45;;;;;;;41.03;21.02;;;3.50;99.90;;;;;;5122530;28;20059;-60
2021/12/06 08:46:21;;;;;;;42.85;22.42;;;3.60;99.90;;;;;;5127460;27;20065;-59
2021/12/06 08:48:48;;;;;;;36.83;18.25;;;3.50;99.90;;;;;;5110124;27;20511;-60
2021/12/06 08:51:19;;;;;;;40.40;19.42;;;3.70;99.90;;;;;;5098195;27;20031;-59
2021/12/06 08:53:45;;;;;;;37.22;20.50;;;3.90;99.90;;;;;;5132559;27;20078;-60
2021/12/06 08:56:11;;;;;;;39.90;20.73;;;3.70;99.90;;;;;;5120947;27;20035;-60
2021/12/06 08:58:37;;;;;;;43.65;21.95;;;3.60;99.90;;;;;;5106989;27;20070;-60
2021/12/06 09:01:04;;;;;;;42.60;20.90;;;3.50;99.90;;;;;;5119937;27;20050;-60
2021/12/06 09:03:30;;;;;;;39.17;17.38;;;3.50;99.90;;;;;;5127722;27;20073;-60
2021/12/06 09:05:57;;;;;;;36.03;18.42;;;3.60;99.90;;;;;;5142662;27;20088;-59
2021/12/06 09:08:24;;;;;;;41.30;20.73;;;4.00;99.90;;;;;;5132049;27;20035;-60
2021/12/06 09:10:53;;;;;;;38.80;18.75;;;3.80;99.90;;;;;;5125414;27;20051;-60
2021/12/06 09:13:21;;;;;;;38.67;19.88;;;3.90;99.90;;;;;;5132828;27;20092;-60
2021/12/06 09:15:47;;;;;;;40.22;20.23;;;3.60;99.90;;;;;;5142677;27;20051;-59
2021/12/06 09:18:13;;;;;;;43.45;20.33;;;3.50;99.90;;;;;;5140683;27;20046;-60
2021/12/06 09:20:42;;;;;;;38.90;19.35;;;3.70;99.90;;;;;;5128518;27;20051;-61
2021/12/06 09:23:09;;;;;;;36.22;16.75;;;3.80;99.90;;;;;;5141876;27;20050;-59
2021/12/06 09:25:36;;;;;;;36.55;19.63;;;3.90;99.90;;;;;;5131776;27;20139;-59
2021/12/06 09:28:03;;;;;;;36.22;18.40;;;3.80;99.90;;;;;;5121828;27;20043;-60
2021/12/06 09:30:31;;;;;;;42.25;19.63;;;3.80;99.90;;;;;;5110943;27;20554;-61
2021/12/06 09:32:59;;;;;;;43.38;19.70;;;3.70;99.90;;;;;;5140069;27;20090;-59
2021/12/06 09:35:28;;;;;;;37.22;18.70;;;3.90;99.90;;;;;;5110669;27;20059;-59
2021/12/06 09:37:57;;;;;;;36.03;15.80;;;3.90;99.90;;;;;;5111853;27;20078;-59
2021/12/06 09:40:25;;;;;;;36.95;17.33;;;4.00;99.90;;;;;;5107634;28;20383;-59
2021/12/06 09:42:52;;;;;;;45.95;21.05;;;4.00;99.90;;;;;;5138602;27;20070;-59
2021/12/06 09:45:22;;;;;;;48.20;22.05;;;3.80;99.90;;;;;;5107611;28;20549;-59
2021/12/06 09:47:51;;;;;;;42.53;19.23;;;3.60;99.90;;;;;;5138169;27;20065;-59
2021/12/06 09:50:25;;;;;;;46.03;23.17;;;3.70;99.90;;;;;;5110694;27;20035;-59
2021/12/06 09:52:56;;;;;;;42.72;21.45;;;3.70;99.90;;;;;;5121420;27;20119;-59
2021/12/06 09:55:24;;;;;;;50.47;22.63;;;3.70;99.90;;;;;;5110839;27;20069;-59
2021/12/06 09:57:50;;;;;;;43.35;21.42;;;3.70;99.90;;;;;;5123246;27;20100;-59
2021/12/06 10:00:20;;;;;;;43.42;21.27;;;3.60;99.90;;;;;;5110809;27;20379;-59
2021/12/06 10:02:46;;;;;;;49.85;22.92;;;3.60;99.90;;;;;;5132222;27;20051;-60
2021/12/06 10:05:12;;;;;;;44.70;22.20;;;3.60;99.90;;;;;;5110430;27;20111;-59
2021/12/06 10:07:38;;;;;;;40.80;21.23;;;3.70;99.90;;;;;;5138821;27;20043;-59
2021/12/06 10:10:07;;;;;;;41.88;21.42;;;3.90;99.90;;;;;;5090649;28;20047;-59
2021/12/06 10:12:34;;;;;;;44.85;21.33;;;4.00;99.90;;;;;;5119111;27;20058;-59
2021/12/06 10:15:03;;;;;;;49.20;21.40;;;4.20;99.90;;;;;;5107272;28;20427;-59
2021/12/06 10:17:32;;;;;;;54.58;26.00;;;4.20;99.90;;;;;;5118372;27;20043;-59
2021/12/06 10:19:58;;;;;;;56.50;27.50;;;4.00;99.90;;;;;;5126997;27;20174;-59
2021/12/06 10:22:26;;;;;;;61.45;27.80;;;4.00;99.90;;;;;;5119983;27;20039;-59
2021/12/06 10:24:58;;;;;;;56.80;26.05;;;4.00;99.90;;;;;;5127386;27;20047;-59
2021/12/06 10:27:25;;;;;;;56.20;28.08;;;4.00;99.90;;;;;;5118026;27;20044;-59
2021/12/06 10:30:01;;;;;;;54.28;26.58;;;4.10;99.90;;;;;;5129860;27;20059;-59
2021/12/06 10:32:30;;;;;;;52.15;26.98;;;4.10;99.90;;;;;;5119554;27;20059;-59
2021/12/06 10:35:03;;;;;;;49.45;22.95;;;4.00;99.90;;;;;;5129100;27;20054;-59
2021/12/06 10:37:46;;;;;;;51.35;23.90;;;4.00;99.90;;;;;;5109435;27;20044;-59
2021/12/06 10:40:30;;;;;;;48.92;24.77;;;3.90;99.90;;;;;;5127167;27;20055;-59
2021/12/06 10:42:57;;;;;;;41.13;19.35;;;3.90;99.90;;;;;;5138666;27;20710;-59
2021/12/06 10:45:28;;;;;;;35.03;18.90;;;3.80;99.90;;;;;;5109678;27;20059;-59
2021/12/06 10:48:33;;;;;;;37.10;19.10;;;4.00;99.90;;;;;;5120109;27;20062;-59
2021/12/06 10:51:04;;;;;;;34.90;18.75;;;3.90;99.90;;;;;;5008712;28;20057;-59
2021/12/06 10:53:40;;;;;;;34.40;18.92;;;3.80;99.90;;;;;;5035523;28;20053;-59
2021/12/06 10:56:17;;;;;;;37.15;20.33;;;3.90;99.90;;;;;;5026072;28;20056;-59
2021/12/06 10:58:43;;;;;;;33.08;18.17;;;3.90;99.90;;;;;;5034783;28;20049;-59
2021/12/06 11:01:15;;;;;;;33.85;16.88;;;4.10;99.90;;;;;;5007907;28;20053;-60
2021/12/06 11:03:47;;;;;;;31.27;16.55;;;4.00;99.90;;;;;;5017638;28;20441;-59
2021/12/06 11:06:20;;;;;;;28.08;14.88;;;4.00;99.90;;;;;;4992046;28;20457;-60
2021/12/06 11:08:50;;;;;;;30.48;16.95;;;4.10;99.90;;;;;;5019139;28;20061;-61
2021/12/06 11:11:38;;;;;;;26.20;15.70;;;4.20;99.90;;;;;;5011249;28;20144;-60
2021/12/06 11:14:13;;;;;;;27.75;15.60;;;4.20;99.90;;;;;;5021945;28;20108;-60
2021/12/06 11:16:47;;;;;;;26.67;14.77;;;4.20;99.90;;;;;;5034067;28;20123;-60
2021/12/06 11:19:16;;;;;;;27.35;14.10;;;4.20;99.90;;;;;;5025999;28;20080;-60
2021/12/06 11:21:45;;;;;;;27.40;14.13;;;4.30;99.90;;;;;;5045410;28;20152;-60
2021/12/06 11:24:13;;;;;;;28.83;17.05;;;4.30;99.90;;;;;;5009896;28;20057;-60
2021/12/06 11:27:05;;;;;;;28.15;15.55;;;4.20;99.90;;;;;;5061117;27;20565;-60
2021/12/06 11:29:57;;;;;;;32.10;16.25;;;4.20;99.90;;;;;;5126735;27;20119;-60
2021/12/06 11:32:35;;;;;;;28.38;15.57;;;4.10;99.90;;;;;;5116859;28;20051;-60
2021/12/06 11:35:09;;;;;;;24.52;12.65;;;4.20;99.90;;;;;;5089778;28;20631;-60
2021/12/06 11:37:38;;;;;;;28.33;14.43;;;4.20;99.90;;;;;;5108755;27;20043;-60
2021/12/06 11:40:09;;;;;;;24.60;14.20;;;4.30;99.90;;;;;;5127497;27;20070;-60
2021/12/06 11:43:03;;;;;;;26.85;15.15;;;4.30;99.90;;;;;;5126728;27;20075;-60
2021/12/06 11:45:50;;;;;;;26.23;15.52;;;4.40;99.90;;;;;;5107919;28;20051;-60
2021/12/06 11:48:24;;;;;;;28.90;15.30;;;4.20;99.90;;;;;;5119164;27;20055;-60
2021/12/06 11:50:54;;;;;;;27.30;14.93;;;4.30;99.90;;;;;;5108094;28;20089;-60
2021/12/06 11:53:46;;;;;;;32.20;18.63;;;4.50;99.90;;;;;;5110445;28;20047;-60
2021/12/06 11:56:22;;;;;;;33.03;17.08;;;4.30;99.90;;;;;;5099930;27;20061;-60
2021/12/06 11:58:53;;;;;;;35.90;18.60;;;4.50;99.90;;;;;;5134957;27;20043;-60
2021/12/06 12:01:25;;;;;;;33.72;15.80;;;4.40;99.90;;;;;;5125851;27;20163;-60
2021/12/06 12:03:57;;;;;;;32.97;19.40;;;4.40;99.90;;;;;;5137022;27;20039;-60
2021/12/06 12:06:33;;;;;;;37.13;18.67;;;4.30;99.90;;;;;;5093407;28;20047;-60
2021/12/06 12:09:13;;;;;;;32.92;18.60;;;4.40;99.90;;;;;;5121002;28;20078;-60
2021/12/06 12:12:02;;;;;;;36.90;18.65;;;4.40;99.90;;;;;;5110989;28;20507;-60
2021/12/06 12:14:38;;;;;;;35.33;19.17;;;4.30;99.90;;;;;;5107197;28;20086;-60
2021/12/06 12:17:19;;;;;;;36.00;16.73;;;4.40;99.90;;;;;;5120016;28;20055;-60
2021/12/06 12:19:47;;;;;;;36.63;20.17;;;4.50;99.90;;;;;;5121961;27;20509;-60
2021/12/06 12:22:15;;;;;;;34.95;19.95;;;4.50;99.90;;;;;;5091763;28;20051;-61
2021/12/06 12:24:44;;;;;;;35.08;18.00;;;4.60;99.90;;;;;;5109553;27;20066;-60
2021/12/06 12:29:46;;;;;;;36.67;19.15;;;4.70;99.90;;;;;;5099367;28;20148;-60
2021/12/06 12:32:13;;;;;;;34.40;16.60;;;4.40;99.90;;;;;;5108222;28;20040;-60
2021/12/06 12:34:45;;;;;;;33.42;19.70;;;4.40;99.90;;;;;;5118458;27;20048;-60
2021/12/06 12:37:13;;;;;;;35.85;19.58;;;4.70;99.90;;;;;;5096133;28;20119;-61
2021/12/06 12:39:39;;;;;;;37.30;16.80;;;4.60;99.90;;;;;;5108510;28;20066;-60
2021/12/06 12:42:07;;;;;;;38.47;19.77;;;4.60;99.90;;;;;;5102105;28;20050;-60
2021/12/06 12:44:47;;;;;;;37.47;19.38;;;4.60;99.90;;;;;;5128286;27;20063;-60
2021/12/06 12:47:19;;;;;;;39.40;20.85;;;4.70;99.90;;;;;;5104450;27;20055;-60
2021/12/06 12:49:48;;;;;;;40.97;20.88;;;4.70;99.90;;;;;;5108811;28;20055;-60
2021/12/06 12:52:15;;;;;;;37.60;19.05;;;4.70;99.90;;;;;;5127673;27;20491;-61
2021/12/06 12:54:45;;;;;;;40.35;19.60;;;4.60;99.90;;;;;;5109332;28;20087;-61
2021/12/06 12:57:14;;;;;;;44.67;22.40;;;4.50;99.90;;;;;;5110264;27;20059;-61
2021/12/06 12:59:48;;;;;;;39.23;22.30;;;4.50;99.90;;;;;;5107979;28;20047;-60
2021/12/06 13:02:24;;;;;;;43.78;22.38;;;4.40;99.90;;;;;;5122872;27;20057;-61